Time;durP1;ratioP1;P1;durP2;ratioP2;P2;SDS_P1;SDS_P2;PMS_P1;PMS_P2;Temp;Humidity;BMP_temperature;BMP_pressure;BME280_temperature;BME280_humidity;BME280_pressure;Samples;Min_cycle;Max_cycle;Signal;HPM_P1;HPM_P2
2022/11/20 00:01:03;;;;;;;35.13;21.65;;;-2.00;99.90;;;;;;5105809;28;20052;-79
2022/11/20 00:03:29;;;;;;;31.27;20.23;;;-0.80;99.90;;;;;;5109473;28;20489;-82
2022/11/20 00:06:00;;;;;;;30.58;19.40;;;-2.20;99.90;;;;;;5087898;28;20155;-80
2022/11/20 00:08:25;;;;;;;28.75;17.83;;;-2.10;99.90;;;;;;5091774;28;20043;-80
2022/11/20 00:10:51;;;;;;;24.65;15.95;;;-1.90;99.90;;;;;;5109155;28;20042;-80
2022/11/20 00:13:16;;;;;;;31.08;19.60;;;-0.80;99.90;;;;;;5109193;28;20090;-80
2022/11/20 00:15:42;;;;;;;32.58;19.38;;;-2.00;99.90;;;;;;5108588;28;20047;-80
2022/11/20 00:18:07;;;;;;;30.20;18.50;;;-2.00;99.90;;;;;;5090511;28;20092;-80
2022/11/20 00:20:33;;;;;;;26.88;17.55;;;-1.90;99.90;;;;;;5107750;28;20104;-80
2022/11/20 00:22:59;;;;;;;26.42;16.52;;;-1.90;99.90;;;;;;5092107;28;20047;-80
2022/11/20 00:25:24;;;;;;;27.45;17.02;;;-1.70;99.90;;;;;;5105984;28;20066;-80
2022/11/20 00:27:50;;;;;;;22.98;15.02;;;-1.70;99.90;;;;;;5106857;28;20043;-80
2022/11/20 00:30:16;;;;;;;24.77;15.73;;;-1.60;99.90;;;;;;5107815;28;20115;-80
2022/11/20 00:32:41;;;;;;;23.23;15.85;;;-1.00;99.90;;;;;;5109076;28;20106;-80
2022/11/20 00:35:07;;;;;;;26.38;16.40;;;-1.70;99.90;;;;;;5109421;28;20052;-79
2022/11/20 00:37:33;;;;;;;23.95;15.57;;;-1.00;99.90;;;;;;5091913;28;20158;-81
2022/11/20 00:39:58;;;;;;;26.10;16.30;;;-1.80;99.90;;;;;;5108493;27;20046;-80
2022/11/20 00:42:24;;;;;;;22.98;15.10;;;-1.60;99.90;;;;;;5087606;28;20040;-80
2022/11/20 00:44:50;;;;;;;24.60;15.85;;;-1.30;99.90;;;;;;5071825;28;20075;-80
2022/11/20 00:47:15;;;;;;;21.08;13.77;;;-1.60;99.90;;;;;;5096574;28;20051;-81
2022/11/20 00:49:41;;;;;;;21.20;14.05;;;-1.60;99.90;;;;;;5090257;28;20043;-80
2022/11/20 00:52:06;;;;;;;25.10;14.98;;;-1.50;99.90;;;;;;5106556;28;20039;-80
2022/11/20 00:54:32;;;;;;;21.58;13.48;;;-1.40;99.90;;;;;;5088138;28;20464;-81
2022/11/20 00:56:57;;;;;;;20.63;13.88;;;-1.30;99.90;;;;;;5098025;28;20449;-81
2022/11/20 00:59:23;;;;;;;26.17;14.48;;;-0.60;99.90;;;;;;5090647;28;20048;-81
2022/11/20 01:01:49;;;;;;;25.05;14.82;;;-1.30;99.90;;;;;;5090234;28;20038;-80
2022/11/20 01:04:14;;;;;;;26.05;14.27;;;-1.30;99.90;;;;;;5090129;28;20040;-80
2022/11/20 01:06:40;;;;;;;24.10;15.15;;;-1.10;99.90;;;;;;5074244;28;20050;-81
2022/11/20 01:09:09;;;;;;;25.02;14.45;;;-1.10;99.90;;;;;;5091113;28;20047;-81
2022/11/20 01:11:37;;;;;;;25.45;13.88;;;-1.30;99.90;;;;;;5106519;28;20054;-80
2022/11/20 01:14:06;;;;;;;21.90;14.13;;;-1.20;99.90;;;;;;5086904;28;20087;-81
2022/11/20 01:16:37;;;;;;;24.83;14.98;;;-1.30;99.90;;;;;;5088860;28;20127;-81
2022/11/20 01:19:06;;;;;;;22.20;13.82;;;-1.20;99.90;;;;;;5108948;28;20047;-81
2022/11/20 01:21:36;;;;;;;21.88;13.00;;;-1.10;99.90;;;;;;5106585;28;20386;-81
2022/11/20 01:24:04;;;;;;;22.33;13.32;;;-1.00;99.90;;;;;;5107100;28;20044;-81
2022/11/20 01:26:32;;;;;;;23.00;13.18;;;-1.00;99.90;;;;;;5105286;28;20442;-81
2022/11/20 01:28:58;;;;;;;22.25;12.85;;;-1.10;99.90;;;;;;5107012;28;20152;-81
2022/11/20 01:31:27;;;;;;;20.35;13.18;;;-1.00;99.90;;;;;;5105790;28;20104;-81
2022/11/20 01:33:55;;;;;;;19.35;12.20;;;-1.00;99.90;;;;;;5089420;28;20046;-81
2022/11/20 01:36:23;;;;;;;22.08;12.80;;;-1.00;99.90;;;;;;5108080;28;20047;-81
2022/11/20 01:38:57;;;;;;;20.00;12.65;;;-0.90;99.90;;;;;;5105383;28;20059;-81
2022/11/20 01:44:11;;;;;;;20.95;12.70;;;-0.90;99.90;;;;;;5087931;28;20055;-81
2022/11/20 01:46:39;;;;;;;21.52;13.40;;;-1.00;99.90;;;;;;5089931;28;20040;-82
2022/11/20 01:49:17;;;;;;;19.80;12.02;;;-0.80;99.90;;;;;;5089859;28;20054;-81
2022/11/20 01:51:50;;;;;;;19.27;12.05;;;-0.90;99.90;;;;;;5105496;28;20842;-81
2022/11/20 01:54:21;;;;;;;20.02;12.13;;;-1.30;99.90;;;;;;5106428;28;20451;-81
2022/11/20 01:56:50;;;;;;;16.08;10.25;;;-0.80;99.90;;;;;;5105775;28;20043;-81
2022/11/20 01:59:19;;;;;;;21.90;12.02;;;-0.70;99.90;;;;;;5106288;28;20058;-82
2022/11/20 02:01:44;;;;;;;19.45;11.93;;;-1.00;99.90;;;;;;5088493;28;20059;-82
2022/11/20 02:04:11;;;;;;;18.92;11.60;;;-1.00;99.90;;;;;;5106404;28;20048;-82
2022/11/20 02:06:48;;;;;;;18.73;12.35;;;-1.10;99.90;;;;;;5105948;28;20058;-81
2022/11/20 02:09:15;;;;;;;21.10;12.65;;;-0.80;99.90;;;;;;5105093;28;20711;-81
2022/11/20 02:11:41;;;;;;;19.65;11.98;;;-1.60;99.90;;;;;;5105545;28;20036;-81
2022/11/20 02:14:07;;;;;;;18.02;11.48;;;-0.80;99.90;;;;;;5107392;28;20071;-82
2022/11/20 02:16:47;;;;;;;20.45;13.32;;;-0.80;99.90;;;;;;5106308;28;20047;-81
2022/11/20 02:19:27;;;;;;;20.05;11.70;;;-0.80;99.90;;;;;;5088391;28;20159;-82
2022/11/20 02:21:59;;;;;;;18.13;12.48;;;-0.90;99.90;;;;;;5088949;28;20055;-82
2022/11/20 02:24:25;;;;;;;19.02;11.40;;;-0.40;99.90;;;;;;5088529;28;20074;-82
2022/11/20 02:26:54;;;;;;;19.42;12.50;;;-0.60;99.90;;;;;;5103876;28;20075;-81
2022/11/20 02:29:30;;;;;;;15.98;10.98;;;-0.70;99.90;;;;;;5106459;28;20509;-81
2022/11/20 02:31:58;;;;;;;20.40;11.40;;;-0.90;99.90;;;;;;5102631;28;20117;-82
2022/11/20 02:34:24;;;;;;;16.63;11.00;;;0.30;99.90;;;;;;5104867;28;20039;-82
2022/11/20 02:36:52;;;;;;;18.25;12.32;;;-0.60;99.90;;;;;;5085948;28;20077;-82
2022/11/20 02:39:19;;;;;;;18.58;12.23;;;-0.60;99.90;;;;;;5092596;28;20520;-81
2022/11/20 02:41:45;;;;;;;17.77;11.90;;;-1.00;99.90;;;;;;5104832;28;20054;-81
2022/11/20 02:44:10;;;;;;;17.80;11.20;;;-0.60;99.90;;;;;;5088536;28;20051;-81
2022/11/20 02:46:36;;;;;;;17.10;9.98;;;-0.60;99.90;;;;;;5088863;28;20047;-81
2022/11/20 02:49:04;;;;;;;16.67;11.25;;;-0.60;99.90;;;;;;5108122;28;20048;-81
2022/11/20 02:51:30;;;;;;;19.88;11.80;;;-0.60;99.90;;;;;;5110106;28;20100;-81
2022/11/20 02:53:56;;;;;;;16.27;10.55;;;-0.60;99.90;;;;;;5093158;28;20562;-81
2022/11/20 02:56:22;;;;;;;16.65;11.35;;;0.00;99.90;;;;;;5109370;28;20044;-81
2022/11/20 02:58:48;;;;;;;19.95;12.70;;;-0.60;99.90;;;;;;5110215;28;20058;-81
2022/11/20 03:01:16;;;;;;;16.85;11.85;;;-0.60;99.90;;;;;;5091340;28;20087;-81
2022/11/20 03:03:41;;;;;;;17.90;11.45;;;-0.40;99.90;;;;;;5091074;28;20539;-81
2022/11/20 03:06:07;;;;;;;20.80;12.25;;;-0.40;99.90;;;;;;5112396;28;20108;-81
2022/11/20 03:08:33;;;;;;;17.52;11.38;;;-0.50;99.90;;;;;;5110059;28;20044;-81
2022/11/20 03:11:05;;;;;;;19.90;11.98;;;-1.00;99.90;;;;;;5108157;28;20039;-81
2022/11/20 03:13:30;;;;;;;17.00;11.70;;;-0.50;99.90;;;;;;5109572;28;20048;-81
2022/11/20 03:15:56;;;;;;;19.80;10.95;;;-0.60;99.90;;;;;;5110045;28;20533;-82
2022/11/20 03:18:21;;;;;;;17.13;11.70;;;-0.60;99.90;;;;;;5110709;28;20039;-81
2022/11/20 03:20:47;;;;;;;17.33;11.63;;;-0.50;99.90;;;;;;5109734;28;20047;-81
2022/11/20 03:23:13;;;;;;;19.25;12.32;;;-0.50;99.90;;;;;;5110785;28;20526;-82
2022/11/20 03:25:38;;;;;;;19.38;12.20;;;0.50;99.90;;;;;;5093210;28;20040;-81
2022/11/20 03:28:04;;;;;;;16.13;11.32;;;-0.60;99.90;;;;;;5108914;28;20051;-81
2022/11/20 03:30:30;;;;;;;17.27;11.52;;;-0.20;99.90;;;;;;5107406;28;20051;-81
2022/11/20 03:32:55;;;;;;;22.00;12.27;;;-0.50;99.90;;;;;;5108861;28;20830;-82
2022/11/20 03:35:21;;;;;;;21.08;11.95;;;-0.50;99.90;;;;;;5107019;28;20119;-82
2022/11/20 03:37:46;;;;;;;20.13;12.38;;;-0.60;99.90;;;;;;5108853;28;20435;-81
2022/11/20 03:40:12;;;;;;;18.95;12.50;;;-0.40;99.90;;;;;;5092126;28;20082;-82
2022/11/20 03:42:47;;;;;;;18.10;12.20;;;0.90;99.90;;;;;;5108126;28;20040;-82
2022/11/20 03:45:17;;;;;;;16.65;11.52;;;-0.30;99.90;;;;;;5092630;28;20096;-82
2022/11/20 03:47:44;;;;;;;15.63;10.27;;;-0.50;99.90;;;;;;5110447;28;20046;-81
2022/11/20 03:50:12;;;;;;;17.48;12.20;;;-0.40;99.90;;;;;;5109655;28;20054;-81
2022/11/20 03:52:38;;;;;;;15.93;11.10;;;-0.40;99.90;;;;;;5092032;28;20039;-81
2022/11/20 03:55:05;;;;;;;21.13;14.07;;;-0.50;99.90;;;;;;5109716;28;20134;-82
2022/11/20 03:57:30;;;;;;;19.98;13.32;;;-0.20;99.90;;;;;;5107247;28;20130;-82
2022/11/20 03:59:56;;;;;;;17.77;12.98;;;-0.20;99.90;;;;;;5091761;28;20581;-82
2022/11/20 04:02:21;;;;;;;17.33;12.13;;;-0.40;99.90;;;;;;5107365;28;20044;-81
2022/11/20 04:04:47;;;;;;;17.27;11.80;;;-0.40;99.90;;;;;;5096108;28;20243;-82
2022/11/20 04:07:12;;;;;;;18.27;11.90;;;-0.40;99.90;;;;;;5092833;28;20051;-81
2022/11/20 04:09:38;;;;;;;18.90;12.10;;;-0.30;99.90;;;;;;5093037;28;20063;-82
2022/11/20 04:12:04;;;;;;;18.05;12.13;;;-0.20;99.90;;;;;;5091778;28;20088;-81
2022/11/20 04:14:29;;;;;;;19.38;12.02;;;-0.10;99.90;;;;;;5091876;28;20524;-81
2022/11/20 04:16:55;;;;;;;22.20;12.73;;;-0.50;99.90;;;;;;5109713;28;20066;-81
2022/11/20 04:19:21;;;;;;;17.45;11.82;;;1.50;99.90;;;;;;5091581;28;20040;-82
2022/11/20 04:21:46;;;;;;;16.45;11.02;;;-0.30;99.90;;;;;;5108967;28;20058;-81
2022/11/20 04:24:12;;;;;;;18.55;11.68;;;-0.40;99.90;;;;;;5107106;28;20328;-81
2022/11/20 04:26:38;;;;;;;18.08;10.85;;;-0.20;99.90;;;;;;5108898;28;20040;-82
2022/11/20 04:29:04;;;;;;;17.50;11.07;;;-0.30;99.90;;;;;;5106928;28;20154;-82
2022/11/20 04:31:32;;;;;;;16.77;11.68;;;1.20;99.90;;;;;;5107498;28;20557;-81
2022/11/20 04:34:03;;;;;;;16.20;10.95;;;-0.30;99.90;;;;;;5107895;28;20039;-81
2022/11/20 04:36:29;;;;;;;17.23;11.80;;;0.30;99.90;;;;;;5106621;28;20067;-81
2022/11/20 04:38:57;;;;;;;17.15;11.00;;;-0.20;99.90;;;;;;5108885;28;20047;-81
2022/11/20 04:41:25;;;;;;;18.98;11.75;;;-0.40;99.90;;;;;;5106832;28;20036;-81
2022/11/20 04:43:53;;;;;;;17.40;11.88;;;-0.70;99.90;;;;;;5090845;28;20058;-81
2022/11/20 04:46:20;;;;;;;16.33;11.32;;;-0.20;99.90;;;;;;5107990;28;20410;-81
2022/11/20 04:48:47;;;;;;;19.13;12.77;;;-0.40;99.90;;;;;;5107968;28;20071;-81
2022/11/20 04:51:12;;;;;;;17.05;11.20;;;-0.50;99.90;;;;;;5108866;28;20070;-82
2022/11/20 04:53:38;;;;;;;16.77;11.80;;;-0.50;99.90;;;;;;5091280;28;20031;-81
2022/11/20 04:56:07;;;;;;;15.93;11.07;;;-0.10;99.90;;;;;;5120432;27;20374;-81
2022/11/20 04:58:42;;;;;;;17.70;11.57;;;-0.70;99.90;;;;;;5088529;28;20048;-81
2022/11/20 05:01:15;;;;;;;18.13;11.57;;;0.10;99.90;;;;;;5107799;28;20063;-81
2022/11/20 05:03:42;;;;;;;17.85;11.85;;;0.40;99.90;;;;;;5106140;28;20044;-81
2022/11/20 05:06:09;;;;;;;19.63;12.32;;;-0.10;99.90;;;;;;5106822;28;20054;-82
2022/11/20 05:08:35;;;;;;;19.00;12.23;;;-0.10;99.90;;;;;;5108886;28;20036;-81
2022/11/20 05:11:10;;;;;;;16.38;11.95;;;-0.30;99.90;;;;;;5089985;28;20818;-82
2022/11/20 05:13:39;;;;;;;16.05;10.50;;;1.10;99.90;;;;;;5089203;28;20044;-81
2022/11/20 05:16:23;;;;;;;19.63;11.82;;;-0.20;99.90;;;;;;5108102;28;20469;-81
2022/11/20 05:18:54;;;;;;;18.58;11.82;;;-0.10;99.90;;;;;;5106046;28;20447;-82
2022/11/20 05:21:22;;;;;;;16.40;11.30;;;-0.40;99.90;;;;;;5109410;28;20071;-81
2022/11/20 05:23:47;;;;;;;16.80;11.85;;;-0.20;99.90;;;;;;5108327;28;20438;-81
2022/11/20 05:26:16;;;;;;;16.40;11.43;;;-0.30;99.90;;;;;;5106434;28;20112;-82
2022/11/20 05:28:45;;;;;;;16.08;10.82;;;-0.10;99.90;;;;;;5104639;28;20472;-82
2022/11/20 05:31:22;;;;;;;16.98;11.25;;;0.00;99.90;;;;;;5099949;28;20036;-82
2022/11/20 05:33:48;;;;;;;17.27;11.13;;;-0.30;99.90;;;;;;5089506;28;20051;-81
2022/11/20 05:36:14;;;;;;;16.52;10.85;;;-0.40;99.90;;;;;;5089667;28;20054;-82
2022/11/20 05:38:43;;;;;;;16.00;10.68;;;-0.20;99.90;;;;;;5106715;28;20060;-81
2022/11/20 05:41:17;;;;;;;15.45;10.52;;;-0.60;99.90;;;;;;5088483;28;20043;-82
2022/11/20 05:43:54;;;;;;;17.92;10.95;;;-0.10;99.90;;;;;;5090480;28;20492;-81
2022/11/20 05:46:21;;;;;;;16.63;11.02;;;-0.30;99.90;;;;;;5107160;28;20079;-82
2022/11/20 05:48:49;;;;;;;14.85;9.88;;;0.10;99.90;;;;;;5105907;28;20073;-82
2022/11/20 05:51:18;;;;;;;16.88;11.20;;;-0.30;99.90;;;;;;5106454;28;20536;-81
2022/11/20 05:53:44;;;;;;;16.15;10.73;;;0.10;99.90;;;;;;5107496;28;20048;-82
2022/11/20 05:56:16;;;;;;;14.93;10.43;;;-0.30;99.90;;;;;;5106710;28;20458;-81
2022/11/20 05:58:42;;;;;;;;;;;0.10;99.90;;;;;;5088079;28;20582;-82
2022/11/20 06:01:17;;;;;;;15.65;10.55;;;-0.40;99.90;;;;;;5089428;28;19981;-82
2022/11/20 06:03:45;;;;;;;13.98;9.40;;;0.00;99.90;;;;;;5106721;28;20169;-81
2022/11/20 06:06:11;;;;;;;16.48;10.30;;;-0.10;99.90;;;;;;5107612;28;20102;-81
2022/11/20 06:08:37;;;;;;;14.75;10.02;;;-0.10;99.90;;;;;;5086019;28;20397;-82
2022/11/20 06:11:08;;;;;;;16.45;10.43;;;0.00;99.90;;;;;;5104965;28;20046;-81
2022/11/20 06:13:34;;;;;;;15.50;10.68;;;0.00;99.90;;;;;;5106866;28;20455;-82
2022/11/20 06:16:00;;;;;;;14.38;9.10;;;0.20;99.90;;;;;;5090020;28;20047;-82
2022/11/20 06:18:30;;;;;;;17.00;10.82;;;-0.10;99.90;;;;;;5105817;28;20418;-82
2022/11/20 06:21:13;;;;;;;14.25;10.30;;;0.60;99.90;;;;;;5104578;28;20124;-82
2022/11/20 06:23:39;;;;;;;16.88;10.45;;;0.10;99.90;;;;;;5105414;28;20438;-82
2022/11/20 06:26:14;;;;;;;16.55;9.50;;;0.20;99.90;;;;;;5089503;28;20080;-82
2022/11/20 06:28:40;;;;;;;15.70;10.00;;;0.20;99.90;;;;;;5103995;28;20108;-81
2022/11/20 06:31:07;;;;;;;15.70;10.23;;;0.10;99.90;;;;;;5090283;28;20048;-82
2022/11/20 06:33:32;;;;;;;16.25;10.15;;;1.00;99.90;;;;;;5107148;28;20116;-82
2022/11/20 06:35:59;;;;;;;20.13;11.48;;;-0.20;99.90;;;;;;5089710;28;20039;-82
2022/11/20 06:38:25;;;;;;;19.75;11.10;;;0.10;99.90;;;;;;5085871;28;20044;-82
2022/11/20 06:40:51;;;;;;;14.50;9.23;;;0.20;99.90;;;;;;5102895;28;20043;-82
2022/11/20 06:43:18;;;;;;;16.65;10.30;;;1.00;99.90;;;;;;5105769;28;20035;-82
2022/11/20 06:45:43;;;;;;;17.85;10.60;;;0.10;99.90;;;;;;5083266;28;20043;-82
2022/11/20 06:48:09;;;;;;;16.50;10.32;;;0.20;99.90;;;;;;5096664;28;20040;-82
2022/11/20 06:50:37;;;;;;;15.95;9.90;;;-0.10;99.90;;;;;;5106190;28;20052;-81
2022/11/20 06:53:04;;;;;;;14.70;10.40;;;0.00;99.90;;;;;;5106178;28;20039;-82
2022/11/20 06:55:31;;;;;;;28.95;17.45;;;0.00;99.90;;;;;;5105212;28;20044;-82
2022/11/20 06:57:57;;;;;;;20.75;11.80;;;0.00;99.90;;;;;;5107117;28;20043;-82
2022/11/20 07:00:22;;;;;;;16.85;11.00;;;0.00;99.90;;;;;;5107464;28;20055;-82
2022/11/20 07:02:48;;;;;;;14.82;9.35;;;0.10;99.90;;;;;;5104466;28;20131;-81
2022/11/20 07:05:14;;;;;;;17.00;11.70;;;0.10;99.90;;;;;;5104968;28;20048;-82
2022/11/20 07:07:39;;;;;;;14.85;11.25;;;0.00;99.90;;;;;;5101270;28;20040;-81
2022/11/20 07:10:05;;;;;;;14.15;9.98;;;-0.10;99.90;;;;;;5106109;28;20058;-82
2022/11/20 07:12:31;;;;;;;16.35;11.30;;;0.10;99.90;;;;;;5088015;28;20043;-81
2022/11/20 07:14:56;;;;;;;15.15;10.55;;;0.00;99.90;;;;;;5102455;28;20040;-82
2022/11/20 07:17:22;;;;;;;16.50;10.82;;;0.00;99.90;;;;;;5088426;28;20040;-82
2022/11/20 07:19:48;;;;;;;15.70;10.50;;;0.10;99.90;;;;;;5104921;28;20047;-82
2022/11/20 07:22:16;;;;;;;15.52;10.32;;;0.10;99.90;;;;;;5085210;28;20088;-82
2022/11/20 07:24:41;;;;;;;16.58;10.73;;;0.10;99.90;;;;;;5085945;28;20090;-82
2022/11/20 07:27:07;;;;;;;17.48;10.35;;;-0.80;99.90;;;;;;5098912;28;20040;-83
2022/11/20 07:29:32;;;;;;;18.80;11.93;;;0.20;99.90;;;;;;5088679;28;20858;-83
2022/11/20 07:31:59;;;;;;;44.72;30.42;;;0.20;99.90;;;;;;5086394;28;20390;-83
2022/11/20 07:34:24;;;;;;;36.30;24.85;;;0.70;99.90;;;;;;5087979;28;20051;-83
2022/11/20 07:36:50;;;;;;;22.27;15.50;;;0.30;99.90;;;;;;5108539;28;20085;-83
2022/11/20 07:39:15;;;;;;;22.73;13.40;;;0.00;99.90;;;;;;5125714;27;20036;-82
2022/11/20 07:41:41;;;;;;;16.60;11.18;;;0.00;99.90;;;;;;5109481;28;20513;-83
2022/11/20 07:44:07;;;;;;;15.73;10.32;;;0.20;99.90;;;;;;5093868;28;20051;-84
2022/11/20 07:46:32;;;;;;;18.25;11.02;;;0.40;99.90;;;;;;5111486;28;20044;-82
2022/11/20 07:48:58;;;;;;;15.07;10.38;;;0.00;99.90;;;;;;5110014;28;20040;-82
2022/11/20 07:51:25;;;;;;;17.77;10.75;;;-0.10;99.90;;;;;;5111432;27;20442;-82
2022/11/20 07:53:52;;;;;;;16.55;10.63;;;0.30;99.90;;;;;;5108974;27;20506;-82
2022/11/20 07:56:17;;;;;;;19.48;12.27;;;-0.30;99.90;;;;;;5109354;28;20435;-83
2022/11/20 07:58:43;;;;;;;19.88;11.40;;;0.20;99.90;;;;;;5111270;28;20053;-83
2022/11/20 08:01:11;;;;;;;19.35;13.18;;;0.20;99.90;;;;;;5108841;28;20047;-82
2022/11/20 08:03:39;;;;;;;20.38;12.30;;;0.90;99.90;;;;;;5109592;28;20051;-82
2022/11/20 08:06:05;;;;;;;14.77;10.35;;;0.40;99.90;;;;;;5092254;28;20054;-82
2022/11/20 08:08:31;;;;;;;13.43;9.80;;;0.40;99.90;;;;;;5110062;28;20042;-81
2022/11/20 08:14:11;;;;;;;18.50;12.02;;;0.30;99.90;;;;;;5109296;28;20040;-82
2022/11/20 08:16:27;;;;;;;17.60;12.00;;;0.20;99.90;;;;;;5108644;28;20043;-82
2022/11/20 08:18:53;;;;;;;19.67;12.93;;;0.50;99.90;;;;;;5109091;28;20558;-82
2022/11/20 08:21:19;;;;;;;19.42;12.35;;;1.90;99.90;;;;;;5108571;28;20043;-83
2022/11/20 08:23:45;;;;;;;17.75;11.30;;;0.50;99.90;;;;;;5109034;28;20048;-81
2022/11/20 08:26:10;;;;;;;14.55;10.23;;;1.90;99.90;;;;;;5110179;28;20435;-80
2022/11/20 08:28:36;;;;;;;15.88;9.65;;;0.50;99.90;;;;;;5108966;28;20804;-82
2022/11/20 08:31:03;;;;;;;15.15;9.77;;;0.80;99.90;;;;;;5091547;28;20128;-80
2022/11/20 08:33:29;;;;;;;16.02;9.43;;;2.30;99.90;;;;;;5108763;28;20054;-80
2022/11/20 08:35:59;;;;;;;15.48;9.07;;;0.60;99.90;;;;;;5073527;28;20101;-80
2022/11/20 08:38:25;;;;;;;14.60;9.52;;;0.70;99.90;;;;;;5088940;28;20069;-81
2022/11/20 08:43:34;;;;;;;14.43;10.18;;;0.70;99.90;;;;;;5088607;28;20417;-81
2022/11/20 08:46:00;;;;;;;14.93;10.25;;;0.90;99.90;;;;;;5087593;28;20036;-81
2022/11/20 08:48:25;;;;;;;14.38;9.73;;;0.80;99.90;;;;;;5087238;28;20433;-81
2022/11/20 08:50:51;;;;;;;14.27;9.25;;;0.80;99.90;;;;;;5089803;28;20130;-81
2022/11/20 08:53:17;;;;;;;13.55;9.75;;;0.90;99.90;;;;;;5126060;27;20109;-81
2022/11/20 08:55:42;;;;;;;15.82;10.88;;;0.50;99.90;;;;;;5125013;27;20043;-81
2022/11/20 08:58:08;;;;;;;13.77;9.52;;;0.80;99.90;;;;;;5108795;28;20101;-81
2022/11/20 09:00:34;;;;;;;14.00;9.80;;;1.00;99.90;;;;;;5108459;28;20581;-81
2022/11/20 09:03:00;;;;;;;15.13;9.55;;;1.00;99.90;;;;;;5108342;28;20086;-81
2022/11/20 09:05:27;;;;;;;16.33;10.40;;;0.60;99.90;;;;;;5124637;27;20040;-81
2022/11/20 09:08:26;;;;;;;14.93;10.32;;;0.80;99.90;;;;;;5108271;28;20047;-80
2022/11/20 09:10:53;;;;;;;14.85;9.63;;;1.20;99.90;;;;;;5105130;28;20039;-80
2022/11/20 09:13:20;;;;;;;14.65;9.77;;;1.10;99.90;;;;;;5108814;28;20412;-81
2022/11/20 09:15:46;;;;;;;13.02;8.68;;;0.90;99.90;;;;;;5097452;28;20055;-81
2022/11/20 09:18:12;;;;;;;14.75;9.35;;;1.20;99.90;;;;;;5090120;28;20375;-81
2022/11/20 09:20:38;;;;;;;12.60;9.23;;;1.00;99.90;;;;;;5104837;27;20135;-81
2022/11/20 09:23:04;;;;;;;13.68;10.15;;;1.20;99.90;;;;;;5106562;28;20096;-81
2022/11/20 09:25:32;;;;;;;14.60;9.75;;;1.30;99.90;;;;;;5108041;28;20040;-81
2022/11/20 09:27:58;;;;;;;15.35;10.40;;;1.60;99.90;;;;;;5108826;28;20119;-82
2022/11/20 09:30:24;;;;;;;13.82;10.57;;;2.50;99.90;;;;;;5105731;27;20046;-83
2022/11/20 09:32:50;;;;;;;12.32;9.52;;;1.50;99.90;;;;;;5103962;28;20048;-81
2022/11/20 09:35:18;;;;;;;13.73;9.40;;;1.50;99.90;;;;;;5107566;28;20126;-82
2022/11/20 09:37:45;;;;;;;15.18;9.98;;;1.60;99.90;;;;;;5089615;28;20528;-82
2022/11/20 09:40:28;;;;;;;14.77;10.25;;;1.60;99.90;;;;;;5104205;28;20092;-82
2022/11/20 09:43:24;;;;;;;12.70;9.70;;;2.00;99.90;;;;;;5103740;28;20040;-83
2022/11/20 09:46:04;;;;;;;15.88;11.10;;;2.20;99.90;;;;;;5097663;28;20035;-82
2022/11/20 09:48:45;;;;;;;14.57;10.55;;;2.40;99.90;;;;;;5101392;28;20349;-83
2022/11/20 09:51:40;;;;;;;13.35;10.00;;;1.90;99.90;;;;;;5100684;28;20086;-83
2022/11/20 09:54:12;;;;;;;14.65;10.25;;;2.50;99.90;;;;;;5102809;28;20389;-83
2022/11/20 09:56:43;;;;;;;15.82;10.27;;;2.30;99.90;;;;;;5106851;28;20075;-82
2022/11/20 09:59:20;;;;;;;12.82;9.43;;;2.50;99.90;;;;;;5089535;28;20047;-83
2022/11/20 10:01:45;;;;;;;12.73;8.80;;;2.90;99.90;;;;;;5106891;28;20048;-82
2022/11/20 10:04:17;;;;;;;11.63;9.02;;;2.70;99.90;;;;;;5107166;28;20054;-82
2022/11/20 10:07:09;;;;;;;10.45;8.43;;;2.20;99.90;;;;;;5106518;28;20517;-82
2022/11/20 10:09:43;;;;;;;11.50;8.10;;;2.60;99.90;;;;;;5090728;28;20051;-83
2022/11/20 10:12:45;;;;;;;10.07;8.20;;;2.70;99.90;;;;;;5089082;28;20048;-83
2022/11/20 10:15:41;;;;;;;11.55;9.10;;;3.00;99.90;;;;;;5108022;28;20096;-83
2022/11/20 10:18:37;;;;;;;17.35;10.48;;;3.00;99.90;;;;;;5107262;28;20035;-83
2022/11/20 10:21:52;;;;;;;13.18;9.82;;;3.00;99.90;;;;;;5107273;28;20046;-83
2022/11/20 10:24:39;;;;;;;14.65;9.45;;;4.00;99.90;;;;;;5102852;28;20090;-82
2022/11/20 10:27:47;;;;;;;12.07;9.88;;;3.10;99.90;;;;;;5107931;28;20043;-82
2022/11/20 10:30:22;;;;;;;11.07;7.80;;;3.00;99.90;;;;;;5107727;28;20051;-82
2022/11/20 10:33:19;;;;;;;9.90;8.32;;;4.00;99.90;;;;;;5104623;28;20035;-82
2022/11/20 10:36:15;;;;;;;9.82;7.60;;;4.00;99.90;;;;;;5107261;28;20506;-82
2022/11/20 10:39:24;;;;;;;10.80;8.27;;;5.40;99.90;;;;;;5104035;28;20535;-82
2022/11/20 10:41:53;;;;;;;12.63;8.77;;;2.70;99.90;;;;;;5067564;28;20040;-82
2022/11/20 10:47:15;;;;;;;10.80;8.27;;;2.90;99.90;;;;;;5084350;28;20052;-82
2022/11/20 10:49:43;;;;;;;12.60;8.48;;;3.70;99.90;;;;;;5080916;28;20050;-82
2022/11/20 10:52:20;;;;;;;11.32;9.00;;;3.50;99.90;;;;;;5055422;28;20044;-82
2022/11/20 10:55:03;;;;;;;11.10;8.43;;;3.60;99.90;;;;;;5096875;28;20044;-82
2022/11/20 10:57:29;;;;;;;;;;;4.50;99.90;;;;;;5106660;28;20051;-81
2022/11/20 11:00:02;;;;;;;10.50;8.57;;;3.40;99.90;;;;;;5105564;28;19924;-81
2022/11/20 11:03:02;;;;;;;13.80;9.73;;;2.70;99.90;;;;;;5096442;28;20043;-82
2022/11/20 11:05:53;;;;;;;12.02;9.00;;;5.50;99.90;;;;;;5104549;28;20055;-83
2022/11/20 11:08:19;;;;;;;10.93;9.27;;;3.40;99.90;;;;;;5105081;28;20649;-82
2022/11/20 11:10:58;;;;;;;10.02;8.85;;;3.40;99.90;;;;;;5104671;28;20308;-82
2022/11/20 11:13:29;;;;;;;11.32;8.93;;;5.00;99.90;;;;;;5112239;28;20040;-83
2022/11/20 11:18:47;;;;;;;11.35;7.80;;;4.60;99.90;;;;;;5101917;27;20729;-82
2022/11/20 11:21:19;;;;;;;12.02;9.13;;;3.60;99.90;;;;;;5109934;27;20067;-83
2022/11/20 11:23:45;;;;;;;11.73;8.52;;;5.20;99.90;;;;;;5110737;28;20036;-83
2022/11/20 11:26:22;;;;;;;9.35;7.68;;;3.60;99.90;;;;;;5111423;28;20104;-82
2022/11/20 11:29:00;;;;;;;11.88;8.65;;;3.70;99.90;;;;;;5111648;28;20039;-82
2022/11/20 11:31:29;;;;;;;9.45;7.65;;;3.80;99.90;;;;;;5112663;28;20044;-82
2022/11/20 11:34:11;;;;;;;10.02;7.88;;;3.80;99.90;;;;;;5110419;27;20120;-82
2022/11/20 11:36:37;;;;;;;10.38;7.97;;;3.80;99.90;;;;;;5109541;28;20503;-83
2022/11/20 11:39:06;;;;;;;10.75;8.25;;;3.90;99.90;;;;;;5090360;28;20042;-82
2022/11/20 11:41:35;;;;;;;9.98;7.80;;;3.90;99.90;;;;;;5107639;28;20115;-82
2022/11/20 11:47:03;;;;;;;9.13;7.85;;;3.90;99.90;;;;;;5107362;28;20055;-81
2022/11/20 11:49:29;;;;;;;10.57;7.90;;;3.90;99.90;;;;;;5123660;27;20071;-81
2022/11/20 11:52:13;;;;;;;9.75;8.15;;;3.90;99.90;;;;;;5111233;28;20071;-81
2022/11/20 11:54:55;;;;;;;9.43;6.90;;;4.00;99.90;;;;;;5111092;28;20156;-82
2022/11/20 11:57:38;;;;;;;8.00;6.40;;;4.10;99.90;;;;;;5108090;28;20077;-81
2022/11/20 12:00:11;;;;;;;9.70;6.63;;;4.30;99.90;;;;;;5088175;28;20042;-82
2022/11/20 12:02:49;;;;;;;7.72;6.90;;;4.40;99.90;;;;;;5100063;28;20080;-81
2022/11/20 12:05:38;;;;;;;7.10;6.10;;;4.50;99.90;;;;;;5106740;28;20059;-82
2022/11/20 12:08:39;;;;;;;8.63;6.32;;;4.60;99.90;;;;;;5100149;28;20079;-81
2022/11/20 12:11:48;;;;;;;10.55;7.30;;;4.80;99.90;;;;;;5103938;28;20036;-83
2022/11/20 12:14:29;;;;;;;8.55;6.53;;;4.80;99.90;;;;;;5072892;28;20063;-81
2022/11/20 12:16:57;;;;;;;9.90;7.30;;;4.80;99.90;;;;;;5106778;28;20043;-82
2022/11/20 12:19:33;;;;;;;10.90;6.95;;;4.60;99.90;;;;;;5110465;27;20075;-81
2022/11/20 12:22:23;;;;;;;7.97;6.75;;;4.70;99.90;;;;;;5107804;27;20043;-81
2022/11/20 12:25:11;;;;;;;9.02;7.15;;;4.60;99.90;;;;;;5110596;28;20115;-81
2022/11/20 12:27:58;;;;;;;10.75;7.80;;;4.50;99.90;;;;;;5108896;27;20043;-82
2022/11/20 12:30:24;;;;;;;11.70;7.45;;;4.40;99.90;;;;;;5106628;28;20493;-82
2022/11/20 12:33:10;;;;;;;8.82;6.90;;;4.40;99.90;;;;;;5103666;28;20052;-81
2022/11/20 12:35:48;;;;;;;9.60;7.15;;;4.30;99.90;;;;;;5098520;28;20418;-81
2022/11/20 12:39:02;;;;;;;8.32;7.43;;;4.20;99.90;;;;;;5105389;28;20074;-81
2022/11/20 12:45:21;;;;;;;8.52;7.35;;;4.00;99.90;;;;;;5104514;28;20043;-79
2022/11/20 12:48:05;;;;;;;9.30;7.85;;;3.90;99.90;;;;;;5105061;28;20071;-80
2022/11/20 12:50:47;;;;;;;9.00;7.20;;;3.90;99.90;;;;;;5099893;28;20043;-81
2022/11/20 12:53:41;;;;;;;8.83;7.33;;;3.90;99.90;;;;;;5104963;28;20055;-80
2022/11/20 12:56:12;;;;;;;8.18;7.30;;;3.90;99.90;;;;;;5105089;28;20036;-79
2022/11/20 12:59:02;;;;;;;11.38;7.18;;;3.90;99.90;;;;;;5108566;28;20163;-80
2022/11/20 13:01:47;;;;;;;9.35;8.10;;;4.10;99.90;;;;;;5087288;28;20058;-81
2022/11/20 13:04:26;;;;;;;11.50;8.57;;;5.10;99.90;;;;;;5101149;28;20040;-80
2022/11/20 13:06:53;;;;;;;14.38;10.60;;;3.90;99.90;;;;;;5108046;28;20086;-80
2022/11/20 13:09:22;;;;;;;13.30;10.48;;;3.80;99.90;;;;;;5108809;28;20378;-80
2022/11/20 13:12:03;;;;;;;13.25;9.80;;;3.70;99.90;;;;;;5107245;28;20036;-80
2022/11/20 13:14:45;;;;;;;12.07;8.77;;;3.80;99.90;;;;;;5109796;28;20040;-80